Littleton, New Hampshire
Current Conditions -  °F | °C
As of 5:52 PM on Wednesday 22 Oct 2014 (Local Time) from KHIE Reporting Station
Overcast Overcast  
Wind Chill: 46°   Ceiling: 2800
Heat Index: 49°   Visibility: 10mi
Dew Point: 41°   Wind: 7mph
Humidity: 74%   Direction: 50°NE
Pressure: 30.1"   Gusts: NA
Location:  44.31°N, 71.77°W
Report Text: KHIE 222152Z AUTO 05006KT 10SM BKN028 OVC033 09/05 A3010 RMK AO2 RAB04E39 SLP198 P0000 T00940050
Loading
Personal Weather Stations






























Interactive Weather Map
Tropical Storm Tracking
New forecast layout! Learn more

10-Day Weather Forecast

Advertisements
Track Severe Weather on mobile